Terminal Aerodrome Forecast
Issued by NWS

Home | Current Version | Previous Version | Text Only | Print | Product List | Glossary On
Versions: 1 2 3 4 5 6 7 8 9 10 11 12 13 14 15 16 17 18 19 20
000
FTUS43 KILX 170500
TAFDEC
TAF
KDEC 170535Z 1706/1806 VRB04KT P6SM SKC
     FM170900 VRB03KT P6SM SCT080
      TEMPO 1709/1712 4SM BR
     FM171700 VRB05KT P6SM SCT035=

USA.gov is the U.S. government's official web portal to all federal, state and local government web resources and services.